Wetterstation Vordersexau
Wetterdaten: Woche 24.09.18 - 30.09.18 (KW39)
Datum Zeit Temp. A. Feuchte A. Luftdruck Regen Wind Richtung Taupunkt Windchill Windben
24.09.2018 00:00 12,1 C 80 % 1021,0 hPa 0,0 l/m 0,0 km/h N-NO 8,8 C 12,1 C 0,0 km/h
24.09.2018 01:00 11,6 C 80 % 1022,8 hPa 0,0 l/m 0,0 km/h N-NW 8,3 C 11,6 C 0,0 km/h
24.09.2018 02:00 10,9 C 82 % 1023,8 hPa 0,0 l/m 0,0 km/h NO 7,9 C 10,9 C 0,0 km/h
24.09.2018 03:00 10,4 C 81 % 1024,5 hPa 0,0 l/m 0,0 km/h O 7,3 C 10,4 C 0,0 km/h
24.09.2018 04:00 9,6 C 81 % 1025,0 hPa 0,0 l/m 0,0 km/h N 6,5 C 9,6 C 0,0 km/h
24.09.2018 05:00 8,5 C 83 % 1026,0 hPa 0,0 l/m 0,0 km/h N 5,8 C 8,5 C 0,0 km/h
24.09.2018 06:00 8,6 C 84 % 1027,1 hPa 0,0 l/m 0,0 km/h N 6,1 C 8,6 C 0,0 km/h
24.09.2018 07:00 8,1 C 84 % 1028,3 hPa 0,0 l/m 0,0 km/h NO 5,6 C 8,1 C 0,0 km/h
24.09.2018 08:00 11,5 C 78 % 1028,8 hPa 0,0 l/m 0,0 km/h N-NW 7,8 C 11,5 C 0,0 km/h
24.09.2018 09:00 15,8 C 66 % 1029,6 hPa 0,0 l/m 0,0 km/h O-NO 9,5 C 15,8 C 0,0 km/h
24.09.2018 10:00 13,8 C 67 % 1030,3 hPa 0,0 l/m 0,0 km/h N 7,8 C 13,8 C 0,0 km/h
24.09.2018 11:00 14,3 C 55 % 1030,6 hPa 0,0 l/m 0,0 km/h N-NO 5,4 C 14,3 C 0,0 km/h
24.09.2018 12:00 14,5 C 53 % 1030,6 hPa 0,0 l/m 0,0 km/h N-NW 5,0 C 14,5 C 0,0 km/h
24.09.2018 13:00 15,1 C 51 % 1030,1 hPa 0,0 l/m 0,0 km/h NO 5,0 C 15,1 C 0,0 km/h
24.09.2018 14:00 15,9 C 47 % 1029,8 hPa 0,0 l/m 0,0 km/h N 4,6 C 15,9 C 0,0 km/h
24.09.2018 15:00 16,2 C 45 % 1029,4 hPa 0,0 l/m 0,0 km/h NO 4,3 C 16,2 C 0,0 km/h
24.09.2018 16:00 16,5 C 44 % 1029,4 hPa 0,0 l/m 0,0 km/h N 4,2 C 16,5 C 0,0 km/h
24.09.2018 17:00 18,7 C 40 % 1029,5 hPa 0,0 l/m 0,0 km/h N 4,8 C 18,7 C 0,0 km/h
24.09.2018 18:00 15,4 C 46 % 1030,0 hPa 0,0 l/m 0,0 km/h NO 3,8 C 15,4 C 0,0 km/h
24.09.2018 19:00 12,1 C 58 % 1030,7 hPa 0,0 l/m 0,0 km/h O-SO 4,1 C 12,1 C 0,0 km/h
24.09.2018 20:00 10,4 C 62 % 1031,3 hPa 0,0 l/m 0,0 km/h O 3,4 C 10,4 C 0,0 km/h
24.09.2018 21:00 9,4 C 69 % 1031,6 hPa 0,0 l/m 0,0 km/h O-SO 4,0 C 9,4 C 0,0 km/h
24.09.2018 22:00 8,3 C 74 % 1031,8 hPa 0,0 l/m 0,0 km/h SO 3,9 C 8,3 C 0,0 km/h
24.09.2018 23:00 7,7 C 76 % 1031,9 hPa 0,0 l/m 0,0 km/h O-SO 3,7 C 7,7 C 0,0 km/h
25.09.2018 00:00 7,1 C 77 % 1032,1 hPa 0,0 l/m 0,0 km/h O-SO 3,3 C 7,1 C 0,0 km/h
25.09.2018 01:00 6,4 C 78 % 1032,3 hPa 0,0 l/m 0,0 km/h O-SO 2,8 C 6,4 C 0,0 km/h
25.09.2018 02:00 5,9 C 80 % 1032,3 hPa 0,0 l/m 0,0 km/h O-SO 2,7 C 5,9 C 0,0 km/h
25.09.2018 03:00 5,8 C 80 % 1032,3 hPa 0,0 l/m 0,0 km/h S-SO 2,6 C 5,8 C 0,0 km/h
25.09.2018 04:00 5,0 C 81 % 1032,3 hPa 0,0 l/m 0,0 km/h S-SO 2,0 C 5,0 C 0,0 km/h
25.09.2018 05:00 4,6 C 83 % 1031,9 hPa 0,0 l/m 0,0 km/h S-SO 2,0 C 4,6 C 0,0 km/h
25.09.2018 06:00 4,1 C 83 % 1031,9 hPa 0,0 l/m 0,0 km/h W 1,5 C 4,1 C 0,0 km/h
25.09.2018 07:00 4,1 C 84 % 1032,0 hPa 0,0 l/m 0,0 km/h O-NO 1,6 C 4,1 C 0,0 km/h
25.09.2018 08:00 10,8 C 75 % 1032,2 hPa 0,0 l/m 0,0 km/h SW 6,5 C 10,8 C 0,0 km/h
25.09.2018 09:00 16,9 C 61 % 1032,4 hPa 0,0 l/m 0,0 km/h W-SW 9,3 C 16,9 C 0,0 km/h
25.09.2018 10:00 14,1 C 61 % 1032,2 hPa 0,0 l/m 0,0 km/h NO 6,7 C 14,1 C 0,0 km/h
25.09.2018 11:00 15,4 C 52 % 1032,4 hPa 0,0 l/m 0,0 km/h O-NO 5,6 C 15,4 C 0,0 km/h
25.09.2018 12:00 16,3 C 48 % 1032,1 hPa 0,0 l/m 0,0 km/h NO 5,3 C 16,3 C 0,0 km/h
25.09.2018 13:00 16,7 C 44 % 1031,8 hPa 0,0 l/m 0,0 km/h NO 4,4 C 16,7 C 0,0 km/h
25.09.2018 14:00 17,4 C 43 % 1031,5 hPa 0,0 l/m 0,0 km/h O-NO 4,7 C 17,4 C 0,0 km/h
25.09.2018 15:00 17,8 C 41 % 1031,3 hPa 0,0 l/m 0,0 km/h NO 4,4 C 17,8 C 0,0 km/h
25.09.2018 16:00 17,8 C 39 % 1031,0 hPa 0,0 l/m 0,0 km/h NO 3,7 C 17,8 C 0,0 km/h
25.09.2018 17:00 20,2 C 34 % 1030,7 hPa 0,0 l/m 0,0 km/h NO 3,8 C 20,2 C 0,0 km/h
25.09.2018 18:00 16,9 C 40 % 1030,8 hPa 0,0 l/m 0,0 km/h NO 3,2 C 16,9 C 0,0 km/h
25.09.2018 19:00 13,4 C 46 % 1030,9 hPa 0,0 l/m 0,0 km/h O-NO 2,0 C 13,4 C 0,0 km/h
25.09.2018 20:00 11,8 C 50 % 1031,3 hPa 0,0 l/m 0,0 km/h O-SO 1,7 C 11,8 C 0,0 km/h
25.09.2018 21:00 9,7 C 56 % 1031,7 hPa 0,0 l/m 0,0 km/h O-NO 1,4 C 9,7 C 0,0 km/h
25.09.2018 22:00 7,9 C 63 % 1031,8 hPa 0,0 l/m 0,0 km/h O-SO 1,3 C 7,9 C 0,0 km/h
25.09.2018 23:00 7,0 C 67 % 1031,7 hPa 0,0 l/m 0,0 km/h O-SO 1,3 C 7,0 C 0,0 km/h
26.09.2018 00:00 5,9 C 71 % 1031,8 hPa 0,0 l/m 0,0 km/h O-SO 1,1 C 5,9 C 0,0 km/h
26.09.2018 01:00 5,3 C 73 % 1031,0 hPa 0,0 l/m 0,0 km/h O 0,9 C 5,3 C 0,0 km/h
26.09.2018 02:00 4,9 C 75 % 1031,0 hPa 0,0 l/m 0,0 km/h O-SO 0,8 C 4,9 C 0,0 km/h
26.09.2018 03:00 4,9 C 75 % 1030,3 hPa 0,0 l/m 0,0 km/h O-NO 0,8 C 4,9 C 0,0 km/h
26.09.2018 04:00 4,0 C 77 % 1030,2 hPa 0,0 l/m 0,0 km/h O-NO 0,3 C 4,0 C 0,0 km/h
26.09.2018 05:00 3,4 C 79 % 1030,7 hPa 0,0 l/m 0,0 km/h O-NO 0,1 C 3,4 C 0,0 km/h
26.09.2018 06:00 3,0 C 80 % 1030,4 hPa 0,0 l/m 0,0 km/h O-NO -0,1 C 3,0 C 0,0 km/h
26.09.2018 07:00 2,9 C 81 % 1031,1 hPa 0,0 l/m 0,0 km/h SO -0,0 C 2,9 C 0,0 km/h
26.09.2018 08:00 8,1 C 74 % 1031,8 hPa 0,0 l/m 0,0 km/h NO 3,8 C 8,1 C 0,0 km/h
26.09.2018 09:00 14,5 C 58 % 1032,1 hPa 0,0 l/m 0,0 km/h SW 6,3 C 14,5 C 0,0 km/h
26.09.2018 10:00 12,4 C 59 % 1032,3 hPa 0,0 l/m 0,0 km/h W-SW 4,6 C 12,4 C 0,0 km/h
26.09.2018 11:00 13,4 C 59 % 1031,9 hPa 0,0 l/m 0,0 km/h N-NW 5,6 C 13,4 C 0,0 km/h
26.09.2018 12:00 14,9 C 52 % 1031,6 hPa 0,0 l/m 0,0 km/h W 5,1 C 14,9 C 0,0 km/h
26.09.2018 13:00 16,6 C 49 % 1031,0 hPa 0,0 l/m 0,0 km/h SW 5,8 C 16,6 C 0,0 km/h
26.09.2018 14:00 17,6 C 48 % 1030,6 hPa 0,0 l/m 0,0 km/h SO 6,5 C 17,6 C 0,0 km/h
26.09.2018 15:00 19,0 C 46 % 1029,9 hPa 0,0 l/m 0,0 km/h N 7,1 C 19,0 C 0,0 km/h
26.09.2018 16:00 20,1 C 44 % 1029,5 hPa 0,0 l/m 0,0 km/h NW 7,5 C 20,1 C 0,0 km/h
26.09.2018 17:00 22,1 C 39 % 1029,2 hPa 0,0 l/m 0,0 km/h NW 7,5 C 22,1 C 0,0 km/h
26.09.2018 18:00 21,3 C 46 % 1029,2 hPa 0,0 l/m 0,0 km/h NW 9,2 C 21,3 C 0,0 km/h
26.09.2018 19:00 14,9 C 61 % 1029,7 hPa 0,0 l/m 0,0 km/h N 7,4 C 14,9 C 0,0 km/h
26.09.2018 20:00 12,6 C 68 % 1029,7 hPa 0,0 l/m 0,0 km/h N-NO 6,9 C 12,6 C 0,0 km/h
26.09.2018 21:00 10,9 C 73 % 1030,1 hPa 0,0 l/m 0,0 km/h N-NO 6,3 C 10,9 C 0,0 km/h
26.09.2018 22:00 10,1 C 77 % 1030,3 hPa 0,0 l/m 0,0 km/h O 6,3 C 10,1 C 0,0 km/h
26.09.2018 23:00 9,6 C 79 % 1030,0 hPa 0,0 l/m 0,0 km/h O-NO 6,1 C 9,6 C 0,0 km/h
27.09.2018 00:00 8,9 C 80 % 1029,7 hPa 0,0 l/m 0,0 km/h O-NO 5,6 C 8,9 C 0,0 km/h
27.09.2018 01:00 8,4 C 80 % 1029,5 hPa 0,0 l/m 0,0 km/h O-NO 5,2 C 8,4 C 0,0 km/h
27.09.2018 02:00 7,4 C 81 % 1029,5 hPa 0,0 l/m 0,0 km/h O-NO 4,4 C 7,4 C 0,0 km/h
27.09.2018 03:00 6,9 C 82 % 1029,3 hPa 0,0 l/m 0,0 km/h O-NO 4,0 C 6,9 C 0,0 km/h
27.09.2018 04:00 6,4 C 83 % 1028,7 hPa 0,0 l/m 0,0 km/h O-NO 3,7 C 6,4 C 0,0 km/h
27.09.2018 05:00 6,3 C 83 % 1028,2 hPa 0,0 l/m 0,0 km/h O-NO 3,6 C 6,3 C 0,0 km/h
27.09.2018 06:00 5,8 C 83 % 1028,3 hPa 0,0 l/m 0,0 km/h O-NO 3,1 C 5,8 C 0,0 km/h
27.09.2018 07:00 5,4 C 84 % 1027,9 hPa 0,0 l/m 0,0 km/h O-NO 2,9 C 5,4 C 0,0 km/h
27.09.2018 08:00 9,7 C 80 % 1028,0 hPa 0,0 l/m 0,0 km/h O-SO 6,4 C 9,7 C 0,0 km/h
27.09.2018 09:00 17,4 C 63 % 1027,8 hPa 0,0 l/m 0,0 km/h SW 10,3 C 17,4 C 0,0 km/h
27.09.2018 10:00 15,6 C 64 % 1027,6 hPa 0,0 l/m 0,0 km/h W 8,8 C 15,6 C 0,0 km/h
27.09.2018 11:00 17,0 C 59 % 1027,0 hPa 0,0 l/m 0,0 km/h W 8,9 C 17,0 C 0,0 km/h
27.09.2018 12:00 19,1 C 52 % 1026,1 hPa 0,0 l/m 0,0 km/h W 9,0 C 19,1 C 0,0 km/h
27.09.2018 13:00 21,1 C 47 % 1025,2 hPa 0,0 l/m 0,0 km/h NW 9,3 C 21,1 C 0,0 km/h
27.09.2018 14:00 22,8 C 46 % 1024,0 hPa 0,0 l/m 0,0 km/h W-SW 10,6 C 22,8 C 0,0 km/h
27.09.2018 15:00 23,8 C 44 % 1023,1 hPa 0,0 l/m 0,0 km/h W-SW 10,8 C 23,8 C 0,0 km/h
27.09.2018 16:00 24,4 C 42 % 1022,2 hPa 0,0 l/m 0,0 km/h W-SW 10,6 C 24,4 C 0,0 km/h
27.09.2018 17:00 27,6 C 39 % 1021,8 hPa 0,0 l/m 0,0 km/h W 12,4 C 27,6 C 0,0 km/h
27.09.2018 18:00 24,1 C 46 % 1021,5 hPa 0,0 l/m 0,0 km/h N-NW 11,7 C 24,1 C 0,0 km/h
27.09.2018 19:00 17,6 C 61 % 1021,5 hPa 0,0 l/m 0,0 km/h N-NO 10,0 C 17,6 C 0,0 km/h
27.09.2018 20:00 15,3 C 70 % 1021,6 hPa 0,0 l/m 0,0 km/h N-NO 9,9 C 15,3 C 0,0 km/h
27.09.2018 21:00 13,9 C 74 % 1021,4 hPa 0,0 l/m 0,0 km/h NO 9,3 C 13,9 C 0,0 km/h
27.09.2018 22:00 13,2 C 76 % 1021,1 hPa 0,0 l/m 0,0 km/h O-NO 9,1 C 13,2 C 0,0 km/h
27.09.2018 23:00 12,4 C 79 % 1021,2 hPa 0,0 l/m 0,0 km/h O-SO 8,9 C 12,4 C 0,0 km/h
28.09.2018 00:00 11,9 C 79 % 1021,0 hPa 0,0 l/m 0,0 km/h O-NO 8,4 C 11,9 C 0,0 km/h
28.09.2018 01:00 11,3 C 81 % 1020,9 hPa 0,0 l/m 0,0 km/h O-SO 8,2 C 11,3 C 0,0 km/h
28.09.2018 02:00 10,7 C 81 % 1020,3 hPa 0,0 l/m 0,0 km/h O 7,6 C 10,7 C 0,0 km/h
28.09.2018 03:00 10,4 C 82 % 1019,9 hPa 0,0 l/m 0,0 km/h O 7,5 C 10,4 C 0,0 km/h
28.09.2018 04:00 9,6 C 83 % 1019,8 hPa 0,0 l/m 0,0 km/h O 6,9 C 9,6 C 0,0 km/h
28.09.2018 05:00 9,3 C 83 % 1019,3 hPa 0,0 l/m 0,0 km/h O-SO 6,6 C 9,3 C 0,0 km/h
28.09.2018 06:00 9,8 C 83 % 1019,2 hPa 0,0 l/m 0,0 km/h O-NO 7,1 C 9,8 C 0,0 km/h
28.09.2018 07:00 10,1 C 83 % 1019,3 hPa 0,0 l/m 0,0 km/h SO 7,3 C 10,1 C 0,0 km/h
28.09.2018 08:00 13,0 C 82 % 1019,4 hPa 0,0 l/m 0,0 km/h O-SO 10,0 C 13,0 C 0,0 km/h
28.09.2018 09:00 19,6 C 64 % 1019,7 hPa 0,0 l/m 0,0 km/h NO 12,6 C 19,6 C 0,0 km/h
28.09.2018 10:00 18,5 C 66 % 1019,5 hPa 0,0 l/m 0,0 km/h NW 12,0 C 18,5 C 0,0 km/h
28.09.2018 11:00 19,8 C 63 % 1019,5 hPa 0,0 l/m 0,0 km/h W-SW 12,5 C 19,8 C 0,0 km/h
28.09.2018 12:00 21,4 C 58 % 1018,8 hPa 0,0 l/m 0,0 km/h W-SW 12,8 C 21,4 C 0,0 km/h
28.09.2018 13:00 22,5 C 54 % 1018,3 hPa 0,0 l/m 0,0 km/h N 12,7 C 22,5 C 0,0 km/h
28.09.2018 14:00 23,2 C 49 % 1017,5 hPa 0,0 l/m 0,0 km/h N-NO 11,9 C 23,2 C 0,0 km/h
28.09.2018 15:00 23,4 C 48 % 1017,1 hPa 0,0 l/m 0,0 km/h N-NO 11,8 C 23,4 C 0,0 km/h
28.09.2018 16:00 22,8 C 47 % 1017,0 hPa 0,0 l/m 0,0 km/h NW 10,9 C 22,8 C 0,0 km/h
28.09.2018 17:00 21,9 C 44 % 1017,1 hPa 0,0 l/m 0,0 km/h N 9,1 C 21,9 C 0,0 km/h
28.09.2018 18:00 19,3 C 48 % 1017,9 hPa 0,0 l/m 0,0 km/h N 8,0 C 19,3 C 0,0 km/h
28.09.2018 19:00 17,4 C 53 % 1018,6 hPa 0,0 l/m 0,0 km/h N 7,7 C 17,4 C 0,0 km/h
28.09.2018 20:00 15,8 C 59 % 1019,4 hPa 0,0 l/m 0,0 km/h N 7,8 C 15,8 C 0,0 km/h
28.09.2018 21:00 15,4 C 54 % 1020,1 hPa 0,0 l/m 0,0 km/h N-NO 6,1 C 15,4 C 0,0 km/h
28.09.2018 22:00 14,1 C 64 % 1020,7 hPa 0,0 l/m 0,0 km/h N 7,4 C 14,1 C 0,0 km/h
28.09.2018 23:00 13,2 C 70 % 1020,9 hPa 0,0 l/m 0,0 km/h S-SO 7,9 C 13,2 C 0,0 km/h
29.09.2018 00:00 12,1 C 75 % 1021,0 hPa 0,0 l/m 0,0 km/h S-SO 7,8 C 12,1 C 0,0 km/h
29.09.2018 01:00 11,8 C 76 % 1021,4 hPa 0,0 l/m 0,0 km/h S-SO 7,7 C 11,8 C 0,0 km/h
29.09.2018 02:00 10,9 C 79 % 1021,5 hPa 0,0 l/m 0,0 km/h N-NO 7,4 C 10,9 C 0,0 km/h
29.09.2018 03:00 13,2 C 74 % 1021,0 hPa 0,0 l/m 0,0 km/h NO 8,7 C 13,2 C 0,0 km/h
29.09.2018 04:00 12,1 C 74 % 1020,4 hPa 0,0 l/m 0,0 km/h N-NO 7,6 C 12,1 C 0,0 km/h
29.09.2018 05:00 11,9 C 72 % 1020,5 hPa 0,0 l/m 0,0 km/h O-NO 7,0 C 11,9 C 0,0 km/h
29.09.2018 06:00 9,9 C 77 % 1020,4 hPa 0,0 l/m 0,0 km/h O-SO 6,1 C 9,9 C 0,0 km/h
29.09.2018 07:00 9,9 C 75 % 1020,7 hPa 0,0 l/m 0,0 km/h O-NO 5,7 C 9,9 C 0,0 km/h
29.09.2018 08:00 12,8 C 67 % 1020,9 hPa 0,0 l/m 0,0 km/h N-NO 6,8 C 12,8 C 0,0 km/h
29.09.2018 09:00 15,8 C 54 % 1020,8 hPa 0,0 l/m 0,0 km/h NO 6,5 C 15,8 C 0,0 km/h
29.09.2018 10:00 15,3 C 55 % 1020,7 hPa 0,0 l/m 0,0 km/h NO 6,3 C 15,3 C 0,0 km/h
29.09.2018 11:00 16,6 C 52 % 1020,4 hPa 0,0 l/m 0,0 km/h O-NO 6,7 C 16,6 C 0,0 km/h
29.09.2018 12:00 18,1 C 49 % 1019,6 hPa 0,0 l/m 0,0 km/h N-NO 7,2 C 18,1 C 0,0 km/h
29.09.2018 13:00 18,6 C 46 % 1019,0 hPa 0,0 l/m 0,0 km/h N 6,8 C 18,6 C 0,0 km/h
29.09.2018 14:00 19,4 C 45 % 1018,3 hPa 0,0 l/m 0,0 km/h N 7,2 C 19,4 C 0,0 km/h
29.09.2018 15:00 19,9 C 45 % 1017,8 hPa 0,0 l/m 0,0 km/h N-NO 7,6 C 19,9 C 0,0 km/h
29.09.2018 16:00 20,0 C 45 % 1017,4 hPa 0,0 l/m 0,0 km/h O-NO 7,7 C 20,0 C 0,0 km/h
29.09.2018 17:00 21,2 C 43 % 1017,1 hPa 0,0 l/m 0,0 km/h N-NO 8,1 C 21,2 C 0,0 km/h
29.09.2018 18:00 18,2 C 49 % 1017,2 hPa 0,0 l/m 0,0 km/h O-NO 7,3 C 18,2 C 0,0 km/h
29.09.2018 19:00 15,4 C 55 % 1017,9 hPa 0,0 l/m 0,0 km/h SO 6,4 C 15,4 C 0,0 km/h
29.09.2018 20:00 13,8 C 59 % 1018,3 hPa 0,0 l/m 0,0 km/h O 5,9 C 13,8 C 0,0 km/h
29.09.2018 21:00 12,5 C 64 % 1018,5 hPa 0,0 l/m 0,0 km/h O-NO 5,9 C 12,5 C 0,0 km/h
29.09.2018 22:00 11,7 C 67 % 1018,3 hPa 0,0 l/m 0,0 km/h SO 5,8 C 11,7 C 0,0 km/h
29.09.2018 23:00 10,4 C 72 % 1018,1 hPa 0,0 l/m 0,0 km/h O-NO 5,6 C 10,4 C 0,0 km/h
30.09.2018 00:00 9,4 C 73 % 1017,5 hPa 0,0 l/m 0,0 km/h O-NO 4,8 C 9,4 C 0,0 km/h
30.09.2018 01:00 8,5 C 73 % 1017,6 hPa 0,0 l/m 0,0 km/h O-NO 3,9 C 8,5 C 0,0 km/h
30.09.2018 02:00 7,1 C 79 % 1017,2 hPa 0,0 l/m 0,0 km/h O-NO 3,7 C 7,1 C 0,0 km/h
30.09.2018 03:00 6,5 C 81 % 1017,1 hPa 0,0 l/m 0,0 km/h O-NO 3,5 C 6,5 C 0,0 km/h
30.09.2018 04:00 5,9 C 82 % 1016,8 hPa 0,0 l/m 0,0 km/h O-NO 3,1 C 5,9 C 0,0 km/h
30.09.2018 05:00 6,0 C 83 % 1016,4 hPa 0,0 l/m 0,0 km/h O-NO 3,3 C 6,0 C 0,0 km/h
30.09.2018 06:00 5,9 C 83 % 1016,3 hPa 0,0 l/m 0,0 km/h O-SO 3,2 C 5,9 C 0,0 km/h
30.09.2018 07:00 6,4 C 83 % 1016,2 hPa 0,0 l/m 0,0 km/h O-NO 3,7 C 6,4 C 0,0 km/h
30.09.2018 08:00 8,9 C 82 % 1016,2 hPa 0,0 l/m 0,0 km/h O-NO 6,0 C 8,9 C 0,0 km/h
30.09.2018 09:00 15,5 C 65 % 1016,0 hPa 0,0 l/m 0,0 km/h S-SW 8,9 C 15,5 C 0,0 km/h
30.09.2018 10:00 14,3 C 67 % 1015,9 hPa 0,0 l/m 0,0 km/h NW 8,3 C 14,3 C 0,0 km/h
30.09.2018 11:00 15,8 C 63 % 1015,4 hPa 0,0 l/m 0,0 km/h S 8,8 C 15,8 C 0,0 km/h
30.09.2018 12:00 18,3 C 60 % 1014,6 hPa 0,0 l/m 0,0 km/h S 10,4 C 18,3 C 0,0 km/h
30.09.2018 13:00 19,3 C 58 % 1013,5 hPa 0,0 l/m 0,0 km/h NW 10,8 C 19,3 C 0,0 km/h
30.09.2018 14:00 20,9 C 55 % 1012,7 hPa 0,0 l/m 0,0 km/h W-SW 11,5 C 20,9 C 0,0 km/h
30.09.2018 15:00 21,8 C 53 % 1012,0 hPa 0,0 l/m 0,0 km/h W-SW 11,8 C 21,8 C 0,0 km/h
30.09.2018 16:00 22,4 C 52 % 1011,4 hPa 0,0 l/m 0,0 km/h W-SW 12,1 C 22,4 C 0,0 km/h
30.09.2018 17:00 24,9 C 46 % 1010,6 hPa 0,0 l/m 0,0 km/h W-SW 12,5 C 24,9 C 0,0 km/h
30.09.2018 18:00 21,3 C 56 % 1010,6 hPa 0,0 l/m 0,0 km/h W-SW 12,2 C 21,3 C 0,0 km/h
30.09.2018 19:00 17,1 C 67 % 1010,8 hPa 0,0 l/m 0,0 km/h S-SW 10,9 C 17,1 C 0,0 km/h
30.09.2018 20:00 15,3 C 72 % 1011,2 hPa 0,0 l/m 0,0 km/h S-SO 10,3 C 15,3 C 0,0 km/h
30.09.2018 21:00 15,1 C 74 % 1011,1 hPa 0,0 l/m 0,0 km/h O-SO 10,5 C 15,1 C 0,0 km/h
30.09.2018 22:00 14,8 C 76 % 1011,4 hPa 0,0 l/m 0,0 km/h O-SO 10,6 C 14,8 C 0,0 km/h
30.09.2018 23:00 14,6 C 77 % 1011,4 hPa 0,0 l/m 0,0 km/h O-SO 10,6 C 14,6 C 0,0 km/h
Min-Datum _ 26.09.18 25.09.18 30.09.18 - 24.09.18 - 26.09.18 26.09.18 24.09.18
_ Min-Zeit 07:53 17:53 17:53 - 00:53 - 06:53 07:53 00:53
Minimum _ 2,9 C 34 % 1010,6 hPa - 0,0 km/h - -0,1 C 2,9 C 0,0 km/h
Max-Datum _ 27.09.18 24.09.18 25.09.18 24.09.18 24.09.18 - 28.09.18 27.09.18 24.09.18
_ Max-Zeit 17:53 06:53 09:53 00:53 00:53 - 12:53 17:53 00:53
Maximum _ 27,6 C 84 % 1032,4 hPa 0,0 l/m 0,0 km/h
N-NO
- 12,8 C 27,6 C 0,0 km/h
N-NO
Durchschnitt _ 13,5 C 65 % 1024,2 hPa #0,0 l/m 0,0 km/h O-NO 6,5 C 13,5 C 0,0 km/h
www.sexauwetter.de